Time;durP1;ratioP1;P1;durP2;ratioP2;P2;SDS_P1;SDS_P2;PMS_P1;PMS_P2;Temp;Humidity;BMP_temperature;BMP_pressure;BME280_temperature;BME280_humidity;BME280_pressure;Samples;Min_cycle;Max_cycle;Signal;HPM_P1;HPM_P2
2020/12/19 00:02:24;;;;;;;1.70;0.20;;;4.90;99.90;;;;;;5059634;28;20500;-59
2020/12/19 00:04:49;;;;;;;1.70;0.20;;;4.90;99.90;;;;;;5058840;28;20466;-59
2020/12/19 00:07:17;;;;;;;1.70;0.20;;;5.00;99.90;;;;;;5059788;28;20633;-59
2020/12/19 00:09:42;;;;;;;1.70;0.20;;;5.00;99.90;;;;;;5058952;28;20901;-60
2020/12/19 00:12:08;;;;;;;1.70;0.20;;;5.10;99.90;;;;;;5057297;28;20475;-60
2020/12/19 00:14:34;;;;;;;1.70;0.20;;;5.00;99.90;;;;;;5068470;28;20196;-60
2020/12/19 00:16:59;;;;;;;1.70;0.20;;;5.00;99.90;;;;;;5056707;28;20269;-60
2020/12/19 00:19:25;;;;;;;1.70;0.20;;;5.00;99.90;;;;;;5060231;28;20641;-58
2020/12/19 00:21:51;;;;;;;1.70;0.20;;;5.00;99.90;;;;;;5063045;28;20228;-58
2020/12/19 00:24:17;;;;;;;1.70;0.20;;;4.90;99.90;;;;;;5057044;28;20272;-60
2020/12/19 00:26:42;;;;;;;1.70;0.20;;;5.00;99.90;;;;;;5062587;28;20779;-58
2020/12/19 00:29:10;;;;;;;1.70;0.20;;;4.90;99.90;;;;;;5057100;28;20192;-61
2020/12/19 00:31:36;;;;;;;1.70;0.20;;;4.90;99.90;;;;;;5056539;28;20200;-61
2020/12/19 00:34:03;;;;;;;1.73;0.20;;;4.90;99.90;;;;;;5062327;28;21008;-59
2020/12/19 00:36:28;;;;;;;1.70;0.20;;;4.90;99.90;;;;;;5059713;28;20527;-59
2020/12/19 00:38:54;;;;;;;1.77;0.20;;;4.90;99.90;;;;;;5056382;28;20451;-59
2020/12/19 00:41:24;;;;;;;4.53;1.80;;;4.90;99.90;;;;;;5057401;28;20224;-59
2020/12/19 00:43:50;;;;;;;1.70;0.20;;;4.90;99.90;;;;;;5056461;28;20432;-59
2020/12/19 00:46:22;;;;;;;1.70;0.20;;;4.90;99.90;;;;;;5058767;28;20793;-60
2020/12/19 00:48:48;;;;;;;1.70;0.20;;;4.90;99.90;;;;;;5056344;28;20452;-59
2020/12/19 00:51:15;;;;;;;1.70;0.23;;;5.00;99.90;;;;;;5057878;28;20443;-59
2020/12/19 00:53:42;;;;;;;1.80;0.43;;;5.00;99.90;;;;;;5061270;28;20481;-59
2020/12/19 00:56:28;;;;;;;1.70;0.20;;;5.00;99.90;;;;;;5060598;28;20439;-59
2020/12/19 00:58:55;;;;;;;1.70;0.30;;;5.00;99.90;;;;;;5056095;28;20443;-59
2020/12/19 01:01:23;;;;;;;4.20;3.90;;;5.00;99.90;;;;;;5048284;28;20208;-59
2020/12/19 01:03:49;;;;;;;1.73;0.20;;;5.00;99.90;;;;;;5062387;28;20180;-59
2020/12/19 01:06:16;;;;;;;1.73;0.20;;;5.00;99.90;;;;;;5057450;28;20711;-59
2020/12/19 01:08:44;;;;;;;1.70;0.20;;;5.00;99.90;;;;;;5060427;28;20236;-59
2020/12/19 01:11:14;;;;;;;1.73;0.20;;;4.80;99.90;;;;;;5059227;28;20442;-59
2020/12/19 01:13:40;;;;;;;1.70;0.20;;;4.80;99.90;;;;;;5055315;28;20268;-59
2020/12/19 01:16:06;;;;;;;1.70;0.20;;;4.80;99.90;;;;;;5059863;28;20443;-59
2020/12/19 01:18:31;;;;;;;1.70;0.20;;;4.80;99.90;;;;;;5044699;28;20530;-59
2020/12/19 01:20:57;;;;;;;1.70;0.20;;;4.80;99.90;;;;;;5059873;28;20684;-59
2020/12/19 01:23:23;;;;;;;1.70;0.20;;;4.80;99.90;;;;;;5063592;28;20181;-59
2020/12/19 01:25:48;;;;;;;1.70;0.20;;;4.70;99.90;;;;;;5059351;28;20273;-59
2020/12/19 01:28:14;;;;;;;2.87;2.67;;;4.70;99.90;;;;;;5054521;28;20208;-59
2020/12/19 01:30:40;;;;;;;1.70;0.20;;;4.70;99.90;;;;;;5059219;28;20196;-59
2020/12/19 01:33:05;;;;;;;1.70;0.20;;;4.70;99.90;;;;;;5055234;28;20205;-59
2020/12/19 01:35:31;;;;;;;1.70;0.20;;;4.70;99.90;;;;;;5044815;28;20192;-59
2020/12/19 01:37:57;;;;;;;1.80;0.30;;;4.80;99.90;;;;;;5054325;28;20189;-60
2020/12/19 01:40:22;;;;;;;1.80;0.30;;;4.80;99.90;;;;;;5055860;28;20217;-59
2020/12/19 01:42:48;;;;;;;1.70;0.20;;;4.70;99.90;;;;;;5061975;28;20205;-59
2020/12/19 01:45:14;;;;;;;1.70;0.20;;;4.60;99.90;;;;;;5058418;28;20636;-59
2020/12/19 01:47:39;;;;;;;1.70;0.20;;;4.60;99.90;;;;;;5058818;28;20192;-60
2020/12/19 01:50:06;;;;;;;1.70;0.20;;;4.60;99.90;;;;;;5062647;28;20613;-60
2020/12/19 01:52:33;;;;;;;1.70;0.20;;;4.60;99.90;;;;;;5043494;28;20212;-60
2020/12/19 01:55:01;;;;;;;1.70;0.20;;;4.60;99.90;;;;;;5057695;28;20526;-59
2020/12/19 01:57:29;;;;;;;1.70;0.20;;;4.70;99.90;;;;;;5060599;28;20188;-60
2020/12/19 01:59:55;;;;;;;1.70;0.20;;;4.70;99.90;;;;;;5057863;28;20212;-60
2020/12/19 02:02:23;;;;;;;1.70;0.20;;;4.70;99.90;;;;;;5056062;28;20208;-59
2020/12/19 02:04:48;;;;;;;1.73;0.20;;;4.60;99.90;;;;;;5057848;28;20445;-60
2020/12/19 02:07:15;;;;;;;1.70;0.20;;;4.60;99.90;;;;;;5059273;28;20181;-60
2020/12/19 02:09:41;;;;;;;1.70;0.20;;;4.60;99.90;;;;;;5058207;28;20264;-60
2020/12/19 02:12:09;;;;;;;1.70;0.20;;;4.50;99.90;;;;;;5056878;28;20561;-59
2020/12/19 02:14:35;;;;;;;1.70;0.20;;;4.40;99.90;;;;;;5062915;28;20430;-60
2020/12/19 02:17:03;;;;;;;1.70;0.20;;;4.50;99.90;;;;;;5082697;28;20163;-60
2020/12/19 02:19:30;;;;;;;1.77;0.20;;;4.50;99.90;;;;;;5068726;28;20189;-60
2020/12/19 02:21:57;;;;;;;1.70;0.20;;;4.40;99.90;;;;;;5058822;28;20205;-59
2020/12/19 02:24:23;;;;;;;1.70;0.20;;;4.50;99.90;;;;;;5062760;28;20184;-60
2020/12/19 02:26:51;;;;;;;1.75;0.20;;;4.50;99.90;;;;;;5054881;28;20231;-59
2020/12/19 02:29:17;;;;;;;1.75;0.20;;;4.40;99.90;;;;;;5056396;28;20173;-59
2020/12/19 02:31:44;;;;;;;1.70;0.20;;;4.30;99.90;;;;;;5057261;28;20205;-59
2020/12/19 02:34:12;;;;;;;1.73;0.20;;;4.40;99.90;;;;;;5066597;28;20181;-60
2020/12/19 02:36:39;;;;;;;1.70;0.20;;;4.50;99.90;;;;;;5062055;28;20184;-59
2020/12/19 02:39:07;;;;;;;1.70;0.20;;;4.50;99.90;;;;;;5052378;28;20275;-59
2020/12/19 02:41:37;;;;;;;1.70;0.20;;;4.50;99.90;;;;;;5053030;28;20584;-59
2020/12/19 02:44:03;;;;;;;1.70;0.30;;;4.50;99.90;;;;;;5055159;28;20276;-60
2020/12/19 02:46:30;;;;;;;1.70;0.20;;;4.50;99.90;;;;;;5052934;28;20634;-64
2020/12/19 02:48:56;;;;;;;1.70;0.20;;;4.40;99.90;;;;;;5063313;28;20189;-60
2020/12/19 02:51:21;;;;;;;1.70;0.20;;;4.40;99.90;;;;;;5056000;28;20205;-59
2020/12/19 02:53:47;;;;;;;1.70;0.20;;;4.50;99.90;;;;;;5068597;28;20181;-60
2020/12/19 02:56:13;;;;;;;1.70;0.20;;;4.60;99.90;;;;;;5058718;28;20220;-60
2020/12/19 02:58:38;;;;;;;2.60;0.83;;;4.60;99.90;;;;;;5066126;28;20188;-59
2020/12/19 03:01:04;;;;;;;1.70;0.20;;;4.50;99.90;;;;;;5065957;28;20287;-60
2020/12/19 03:03:30;;;;;;;1.70;0.20;;;4.40;99.90;;;;;;5063172;28;20553;-60
2020/12/19 03:05:55;;;;;;;1.70;0.20;;;4.40;99.90;;;;;;5069188;28;20256;-60
2020/12/19 03:08:21;;;;;;;1.70;0.20;;;4.40;99.90;;;;;;5077545;28;20212;-60
2020/12/19 03:10:47;;;;;;;1.73;0.20;;;4.40;99.90;;;;;;5062292;28;20197;-60
2020/12/19 03:13:13;;;;;;;1.80;0.32;;;4.40;99.90;;;;;;5077142;28;20205;-60
2020/12/19 03:15:38;;;;;;;1.70;0.20;;;4.40;99.90;;;;;;5074886;28;20206;-59
2020/12/19 03:18:04;;;;;;;1.70;0.20;;;4.40;99.90;;;;;;5064608;28;20257;-60
2020/12/19 03:20:30;;;;;;;1.70;0.20;;;4.50;99.90;;;;;;5073930;28;20201;-59
2020/12/19 03:22:55;;;;;;;1.90;0.50;;;4.50;99.90;;;;;;5063555;28;20204;-59
2020/12/19 03:25:21;;;;;;;1.70;0.20;;;4.50;99.90;;;;;;5066888;28;20233;-59
2020/12/19 03:27:47;;;;;;;1.70;0.20;;;4.50;99.90;;;;;;5077344;28;20553;-59
2020/12/19 03:30:13;;;;;;;1.70;0.20;;;4.60;99.90;;;;;;5079714;28;20180;-60
2020/12/19 03:32:38;;;;;;;1.70;0.20;;;4.70;99.90;;;;;;5066542;28;20287;-59
2020/12/19 03:35:04;;;;;;;1.70;0.20;;;4.70;99.90;;;;;;5064695;28;20443;-60
2020/12/19 03:37:33;;;;;;;1.70;0.20;;;4.70;99.90;;;;;;5061957;28;20620;-59
2020/12/19 03:39:59;;;;;;;1.73;0.20;;;4.80;99.90;;;;;;5069183;28;20221;-60
2020/12/19 03:42:25;;;;;;;1.70;0.20;;;4.80;99.90;;;;;;5071009;28;20628;-60
2020/12/19 03:44:51;;;;;;;1.70;0.20;;;4.80;99.90;;;;;;5064338;28;20522;-60
2020/12/19 03:47:17;;;;;;;1.70;0.20;;;4.70;99.90;;;;;;5070645;28;20189;-60
2020/12/19 03:49:42;;;;;;;1.70;0.20;;;4.80;99.90;;;;;;5080389;28;20195;-60
2020/12/19 03:52:08;;;;;;;1.70;0.20;;;4.70;99.90;;;;;;5058774;28;20588;-59
2020/12/19 03:54:34;;;;;;;1.70;0.20;;;4.70;99.90;;;;;;5067139;28;20250;-59
2020/12/19 03:57:00;;;;;;;9.13;1.90;;;4.60;99.90;;;;;;5077417;28;20184;-59
2020/12/19 03:59:26;;;;;;;3.20;1.23;;;4.50;99.90;;;;;;5059523;28;20291;-60
2020/12/19 04:01:51;;;;;;;1.70;0.20;;;4.40;99.90;;;;;;5067048;28;20212;-59
2020/12/19 04:04:17;;;;;;;1.70;0.20;;;4.30;99.90;;;;;;5078937;28;20176;-59
2020/12/19 04:06:42;;;;;;;1.70;0.20;;;4.40;99.90;;;;;;5062339;28;20181;-60
2020/12/19 04:09:08;;;;;;;1.77;0.30;;;4.40;99.90;;;;;;5073634;28;20239;-60
2020/12/19 04:11:34;;;;;;;1.70;0.30;;;4.40;99.90;;;;;;5061331;28;20205;-60
2020/12/19 04:13:59;;;;;;;1.70;0.20;;;4.40;99.90;;;;;;5068978;28;20176;-60
2020/12/19 04:16:25;;;;;;;2.97;1.00;;;4.40;99.90;;;;;;5060753;28;20196;-60
2020/12/19 04:18:51;;;;;;;1.70;0.20;;;4.50;99.90;;;;;;5067808;28;20184;-59
2020/12/19 04:21:16;;;;;;;1.80;0.37;;;4.50;99.90;;;;;;5068211;28;20221;-60
2020/12/19 04:23:42;;;;;;;1.70;0.20;;;4.40;99.90;;;;;;5082306;28;20181;-60
2020/12/19 04:26:08;;;;;;;1.70;0.20;;;4.50;99.90;;;;;;5059818;28;20605;-60
2020/12/19 04:28:33;;;;;;;1.70;0.20;;;4.60;99.90;;;;;;5074182;28;20568;-60
2020/12/19 04:30:59;;;;;;;1.70;0.20;;;4.70;99.90;;;;;;5066737;28;20193;-60
2020/12/19 04:33:25;;;;;;;1.70;0.20;;;4.70;99.90;;;;;;5068922;28;20191;-60
2020/12/19 04:35:53;;;;;;;1.70;0.20;;;4.80;99.90;;;;;;5075766;28;20188;-60
2020/12/19 04:38:19;;;;;;;1.70;0.20;;;4.80;99.90;;;;;;5074764;28;20188;-59
2020/12/19 04:40:45;;;;;;;1.70;0.20;;;4.90;99.90;;;;;;5057386;28;20296;-60
2020/12/19 04:43:14;;;;;;;1.70;0.20;;;4.90;99.90;;;;;;5073694;28;20201;-59
2020/12/19 04:45:41;;;;;;;1.70;0.20;;;4.90;99.90;;;;;;5059514;28;20440;-59
2020/12/19 04:48:07;;;;;;;1.70;0.20;;;4.90;99.90;;;;;;5059412;28;20667;-60
2020/12/19 04:50:34;;;;;;;1.70;0.20;;;4.80;99.90;;;;;;5075703;28;20186;-59
2020/12/19 04:52:59;;;;;;;1.73;0.20;;;4.80;99.90;;;;;;5072990;28;20447;-60
2020/12/19 04:55:26;;;;;;;1.70;0.20;;;4.80;99.90;;;;;;5071922;28;20191;-60
2020/12/19 04:57:56;;;;;;;1.70;0.20;;;4.80;99.90;;;;;;5067387;28;20207;-60
2020/12/19 05:00:22;;;;;;;1.90;0.93;;;4.70;99.90;;;;;;5077379;28;20212;-59
2020/12/19 05:02:48;;;;;;;1.70;0.20;;;4.80;99.90;;;;;;5075343;28;20370;-60
2020/12/19 05:05:13;;;;;;;1.70;0.20;;;4.80;99.90;;;;;;5077579;28;20188;-60
2020/12/19 05:07:39;;;;;;;1.70;0.20;;;4.80;99.90;;;;;;5063078;28;20185;-60
2020/12/19 05:10:05;;;;;;;1.70;0.20;;;4.80;99.90;;;;;;5064980;28;20196;-60
2020/12/19 05:12:32;;;;;;;1.70;0.20;;;4.70;99.90;;;;;;5074636;28;20238;-60
2020/12/19 05:14:57;;;;;;;1.70;0.20;;;4.70;99.90;;;;;;5060982;28;20191;-60
2020/12/19 05:17:23;;;;;;;1.70;0.20;;;4.70;99.90;;;;;;5069033;28;20319;-60
2020/12/19 05:19:53;;;;;;;1.70;0.20;;;4.70;99.90;;;;;;5053087;28;20314;-59
2020/12/19 05:22:19;;;;;;;1.70;0.20;;;4.60;99.90;;;;;;5069539;28;20260;-60
2020/12/19 05:24:45;;;;;;;1.70;0.20;;;4.60;99.90;;;;;;5076269;28;20185;-60
2020/12/19 05:27:12;;;;;;;1.70;0.20;;;4.50;99.90;;;;;;5070320;28;20184;-60
2020/12/19 05:29:37;;;;;;;1.70;0.20;;;4.50;99.90;;;;;;5059780;28;20174;-60
2020/12/19 05:32:03;;;;;;;1.70;0.20;;;4.40;99.90;;;;;;5063515;28;20216;-60
2020/12/19 05:34:29;;;;;;;1.70;0.20;;;4.40;99.90;;;;;;5063200;28;20576;-59
2020/12/19 05:36:55;;;;;;;1.70;0.20;;;4.40;99.90;;;;;;5067719;28;20204;-60
2020/12/19 05:39:21;;;;;;;1.70;0.20;;;4.40;99.90;;;;;;5083805;28;20177;-60
2020/12/19 05:41:48;;;;;;;1.70;0.20;;;4.50;99.90;;;;;;5065369;28;20717;-60
2020/12/19 05:44:21;;;;;;;1.70;0.20;;;4.50;99.90;;;;;;5056659;28;20173;-60
2020/12/19 05:46:47;;;;;;;1.80;0.20;;;4.50;99.90;;;;;;5074481;28;20182;-60
2020/12/19 05:49:13;;;;;;;1.73;0.40;;;4.50;99.90;;;;;;5066977;28;20180;-59
2020/12/19 05:51:41;;;;;;;1.73;0.20;;;4.50;99.90;;;;;;5062321;28;20204;-60
2020/12/19 05:54:12;;;;;;;1.70;0.20;;;4.50;99.90;;;;;;5059683;28;20255;-59
2020/12/19 05:56:42;;;;;;;1.75;0.30;;;4.50;99.90;;;;;;5064833;28;20279;-60
2020/12/19 05:59:16;;;;;;;1.70;0.20;;;4.40;99.90;;;;;;5055668;28;20181;-60
2020/12/19 06:01:44;;;;;;;3.22;2.35;;;4.40;99.90;;;;;;5070598;28;20204;-60
2020/12/19 06:04:11;;;;;;;2.92;1.55;;;4.40;99.90;;;;;;5064791;28;20187;-60
2020/12/19 06:06:38;;;;;;;1.70;0.20;;;4.40;99.90;;;;;;5059394;28;20170;-60
2020/12/19 06:09:05;;;;;;;1.70;0.20;;;4.50;99.90;;;;;;5071159;28;20172;-60
2020/12/19 06:11:40;;;;;;;1.70;0.20;;;4.50;99.90;;;;;;5056509;28;20213;-59
2020/12/19 06:14:09;;;;;;;1.73;0.20;;;4.50;99.90;;;;;;5075185;28;20179;-59
2020/12/19 06:16:41;;;;;;;2.55;0.98;;;4.60;99.90;;;;;;5076352;28;20667;-60
2020/12/19 06:19:22;;;;;;;1.70;0.20;;;4.60;99.90;;;;;;5056628;28;20177;-59
2020/12/19 06:21:54;;;;;;;1.70;0.20;;;4.70;99.90;;;;;;5068054;28;20298;-59
2020/12/19 06:24:38;;;;;;;2.00;1.20;;;4.70;99.90;;;;;;5074196;23;20237;-65
2020/12/19 06:27:27;;;;;;;1.70;0.20;;;4.70;99.90;;;;;;5054884;28;20185;-64
2020/12/19 06:29:53;;;;;;;1.70;0.20;;;4.60;99.90;;;;;;5049796;28;20729;-64
2020/12/19 06:32:23;;;;;;;1.73;0.20;;;4.70;99.90;;;;;;5060449;28;20213;-65
2020/12/19 06:35:09;;;;;;;1.73;0.20;;;4.70;99.90;;;;;;5066732;28;20460;-65
2020/12/19 06:37:38;;;;;;;1.90;0.93;;;4.70;99.90;;;;;;5045998;28;20174;-65
2020/12/19 06:40:18;;;;;;;1.70;0.20;;;4.70;99.90;;;;;;5048935;28;20198;-66
2020/12/19 06:42:46;;;;;;;1.70;0.20;;;4.70;99.90;;;;;;5055873;28;20236;-64
2020/12/19 06:45:25;;;;;;;1.70;0.20;;;4.70;99.90;;;;;;5042486;28;20201;-65
2020/12/19 06:47:52;;;;;;;1.70;0.20;;;4.70;99.90;;;;;;5040099;28;20209;-65
2020/12/19 06:50:19;;;;;;;1.70;0.20;;;4.80;99.90;;;;;;5039633;28;20277;-64
2020/12/19 06:52:56;;;;;;;1.70;0.20;;;4.70;99.90;;;;;;5032861;28;20182;-65
2020/12/19 06:55:27;;;;;;;1.70;0.20;;;4.70;99.90;;;;;;5035786;28;20459;-64
2020/12/19 06:57:57;;;;;;;1.70;0.20;;;4.60;99.90;;;;;;5041507;28;20185;-64
2020/12/19 07:00:31;;;;;;;2.00;0.70;;;4.60;99.90;;;;;;5032969;28;20561;-66
2020/12/19 07:03:01;;;;;;;1.70;0.20;;;4.50;99.90;;;;;;5039014;28;20441;-64
2020/12/19 07:05:33;;;;;;;1.70;0.20;;;4.40;99.90;;;;;;5040666;28;20205;-64
2020/12/19 07:08:21;;;;;;;1.75;0.28;;;4.50;99.90;;;;;;5009912;28;20296;-64
2020/12/19 07:10:49;;;;;;;1.77;0.28;;;4.60;99.90;;;;;;5034310;28;20584;-64
2020/12/19 07:13:15;;;;;;;1.70;0.20;;;4.50;99.90;;;;;;5037057;28;20185;-64
2020/12/19 07:15:42;;;;;;;1.70;0.20;;;4.50;99.90;;;;;;5026578;28;20675;-64
2020/12/19 07:18:24;;;;;;;1.80;0.40;;;4.40;99.90;;;;;;5029729;28;20226;-64
2020/12/19 07:20:57;;;;;;;1.70;0.20;;;4.40;99.90;;;;;;5025826;28;20254;-65
2020/12/19 07:23:23;;;;;;;1.70;0.20;;;4.40;99.90;;;;;;5032876;28;20192;-64
2020/12/19 07:25:49;;;;;;;1.70;0.20;;;4.40;99.90;;;;;;5036339;28;20659;-64
2020/12/19 07:28:15;;;;;;;1.70;0.20;;;4.40;99.90;;;;;;5032312;28;20261;-65
2020/12/19 07:30:41;;;;;;;1.70;0.20;;;4.40;99.90;;;;;;5034037;28;20217;-63
2020/12/19 07:33:08;;;;;;;1.70;0.20;;;4.50;99.90;;;;;;5031406;28;20196;-65
2020/12/19 07:35:35;;;;;;;1.70;0.20;;;4.60;99.90;;;;;;5052491;28;20466;-63
2020/12/19 07:38:03;;;;;;;1.70;0.20;;;4.60;99.90;;;;;;5039372;28;20197;-64
2020/12/19 07:40:29;;;;;;;1.70;0.20;;;4.60;99.90;;;;;;5040466;28;20198;-64
2020/12/19 07:43:10;;;;;;;1.70;0.20;;;4.60;99.90;;;;;;5049629;28;20213;-64
2020/12/19 07:45:38;;;;;;;1.70;0.20;;;4.60;99.90;;;;;;5020357;28;20495;-66
2020/12/19 07:48:05;;;;;;;1.70;0.20;;;4.50;99.90;;;;;;5041032;28;20683;-64
2020/12/19 07:50:32;;;;;;;1.73;0.20;;;4.60;99.90;;;;;;5043231;28;20185;-63
2020/12/19 07:53:03;;;;;;;1.73;0.20;;;4.60;99.90;;;;;;5034378;28;20182;-66
2020/12/19 07:55:29;;;;;;;1.70;0.20;;;4.60;99.90;;;;;;5049544;28;20555;-64
2020/12/19 07:57:56;;;;;;;1.70;0.20;;;4.60;99.90;;;;;;5049657;28;20182;-64
2020/12/19 08:00:25;;;;;;;1.70;0.20;;;4.50;99.90;;;;;;5048672;28;20202;-65
2020/12/19 08:02:51;;;;;;;1.70;0.20;;;4.40;99.90;;;;;;5055599;28;20193;-65
2020/12/19 08:05:18;;;;;;;1.70;0.20;;;4.40;99.90;;;;;;5056600;28;20217;-65
2020/12/19 08:07:51;;;;;;;1.70;0.20;;;4.40;99.90;;;;;;5051630;28;20182;-66
2020/12/19 08:10:17;;;;;;;1.70;0.20;;;4.40;99.90;;;;;;5059456;28;20201;-64
2020/12/19 08:12:43;;;;;;;1.70;0.20;;;4.40;99.90;;;;;;5047665;28;20217;-65
2020/12/19 08:15:23;;;;;;;1.70;0.20;;;4.50;99.90;;;;;;5038914;28;20672;-63
2020/12/19 08:18:03;;;;;;;1.73;0.20;;;4.50;99.90;;;;;;5041236;28;20536;-65
2020/12/19 08:20:34;;;;;;;1.70;0.20;;;4.60;99.90;;;;;;5038454;28;20239;-64
2020/12/19 08:23:02;;;;;;;1.70;0.20;;;4.60;99.90;;;;;;5033835;28;20186;-64
2020/12/19 08:25:29;;;;;;;1.70;0.20;;;4.60;99.90;;;;;;5034884;28;20217;-63
2020/12/19 08:27:55;;;;;;;1.70;0.20;;;4.70;99.90;;;;;;5035504;28;20231;-63
2020/12/19 08:30:28;;;;;;;1.70;0.20;;;4.60;99.90;;;;;;5035208;28;20185;-64
2020/12/19 08:33:03;;;;;;;2.80;1.30;;;4.70;99.90;;;;;;5041913;28;20672;-64
2020/12/19 08:35:33;;;;;;;1.70;0.20;;;4.70;99.90;;;;;;5037305;28;20251;-64
2020/12/19 08:38:03;;;;;;;1.70;0.20;;;4.60;99.90;;;;;;5033443;28;20231;-63
2020/12/19 08:40:34;;;;;;;1.70;0.20;;;4.60;99.90;;;;;;5039499;28;20813;-64
2020/12/19 08:43:00;;;;;;;1.70;0.20;;;4.70;99.90;;;;;;5037946;28;20178;-63
2020/12/19 08:45:32;;;;;;;1.70;0.20;;;4.70;99.90;;;;;;5032666;28;20202;-63
2020/12/19 08:48:03;;;;;;;1.73;0.20;;;4.70;99.90;;;;;;5012139;28;20460;-64
2020/12/19 08:50:31;;;;;;;1.70;0.20;;;4.70;99.90;;;;;;5029499;28;20689;-63
2020/12/19 08:53:07;;;;;;;2.00;0.52;;;4.80;99.90;;;;;;5033865;28;20532;-64
2020/12/19 08:55:33;;;;;;;1.80;0.30;;;4.70;99.90;;;;;;5020946;28;20235;-63
2020/12/19 08:57:59;;;;;;;1.70;0.20;;;4.70;99.90;;;;;;5023239;28;20444;-63
2020/12/19 09:00:30;;;;;;;1.70;0.20;;;4.70;99.90;;;;;;5023955;28;20466;-63
2020/12/19 09:02:56;;;;;;;1.70;0.20;;;4.70;99.90;;;;;;5031381;28;20445;-64
2020/12/19 09:05:33;;;;;;;1.70;0.20;;;4.80;99.90;;;;;;5033496;28;20967;-64
2020/12/19 09:07:59;;;;;;;1.70;0.20;;;4.80;99.90;;;;;;5012833;28;20187;-64
2020/12/19 09:10:29;;;;;;;1.70;0.20;;;4.90;99.90;;;;;;5024639;28;20436;-64
2020/12/19 09:13:19;;;;;;;1.70;0.20;;;5.00;99.90;;;;;;5030353;28;20445;-64
2020/12/19 09:15:45;;;;;;;1.73;0.23;;;5.00;99.90;;;;;;5028590;28;20543;-64
2020/12/19 09:18:24;;;;;;;1.80;0.20;;;5.20;99.90;;;;;;5034930;28;20440;-64
2020/12/19 09:20:53;;;;;;;1.70;0.20;;;5.30;99.90;;;;;;5036987;28;20459;-64
2020/12/19 09:23:19;;;;;;;1.70;0.20;;;5.30;99.90;;;;;;5036390;28;20429;-64
2020/12/19 09:25:46;;;;;;;1.70;0.20;;;5.40;99.90;;;;;;5043527;28;20834;-63
2020/12/19 09:28:12;;;;;;;1.90;0.73;;;5.40;99.90;;;;;;5030182;28;20443;-63
2020/12/19 09:30:38;;;;;;;2.20;0.80;;;5.50;99.90;;;;;;5024629;28;20459;-63
2020/12/19 09:33:03;;;;;;;1.70;0.20;;;5.50;99.90;;;;;;5036707;28;20439;-64
2020/12/19 09:35:30;;;;;;;1.70;0.20;;;5.40;99.90;;;;;;5032518;28;20220;-64
2020/12/19 09:37:56;;;;;;;1.70;0.20;;;5.40;99.90;;;;;;5040269;28;20189;-65
2020/12/19 09:40:23;;;;;;;1.70;0.20;;;5.40;99.90;;;;;;5012722;28;20473;-64
2020/12/19 09:42:49;;;;;;;1.80;0.40;;;5.40;99.90;;;;;;5036660;28;20445;-64
2020/12/19 09:45:18;;;;;;;1.70;0.20;;;5.40;99.90;;;;;;5036875;28;20456;-64
2020/12/19 09:47:43;;;;;;;2.40;0.77;;;5.50;99.90;;;;;;5029941;28;20436;-64
2020/12/19 09:50:11;;;;;;;1.70;0.20;;;5.50;99.90;;;;;;5033776;28;20757;-64
2020/12/19 09:52:37;;;;;;;1.70;0.20;;;5.50;99.90;;;;;;5037812;28;20268;-65
2020/12/19 09:55:07;;;;;;;1.80;0.20;;;5.50;99.90;;;;;;5031463;28;20809;-64
2020/12/19 09:57:33;;;;;;;1.70;0.20;;;5.50;99.90;;;;;;5025847;28;20797;-64
2020/12/19 09:59:59;;;;;;;1.70;0.20;;;5.40;99.90;;;;;;5030816;28;20531;-65
2020/12/19 10:02:25;;;;;;;1.70;0.20;;;5.40;99.90;;;;;;5023070;28;20528;-65
2020/12/19 10:04:51;;;;;;;1.70;0.20;;;5.40;99.90;;;;;;5046452;28;20440;-64
2020/12/19 10:07:16;;;;;;;1.70;0.20;;;5.50;99.90;;;;;;5032697;28;20204;-64
2020/12/19 10:09:42;;;;;;;1.70;0.20;;;5.50;99.90;;;;;;5016205;28;20531;-63
2020/12/19 10:12:08;;;;;;;1.70;0.20;;;5.50;99.90;;;;;;5041898;28;20252;-65
2020/12/19 10:14:34;;;;;;;1.80;0.20;;;5.60;99.90;;;;;;5036380;28;20288;-64
2020/12/19 10:17:00;;;;;;;1.70;0.20;;;5.60;99.90;;;;;;5038644;28;20334;-66
2020/12/19 10:19:25;;;;;;;1.70;0.20;;;5.70;99.90;;;;;;5037230;28;20445;-64
2020/12/19 10:21:51;;;;;;;1.80;0.20;;;5.70;99.90;;;;;;5039215;28;20886;-64
2020/12/19 10:24:17;;;;;;;1.70;0.20;;;5.90;99.90;;;;;;5033004;28;20223;-64
2020/12/19 10:26:47;;;;;;;1.70;0.20;;;6.00;99.90;;;;;;5035336;28;20186;-64
2020/12/19 10:29:14;;;;;;;1.70;0.20;;;6.10;99.90;;;;;;5015886;28;20190;-64
2020/12/19 10:31:40;;;;;;;1.70;0.23;;;6.20;99.90;;;;;;5025800;28;20832;-64
2020/12/19 10:34:06;;;;;;;1.80;0.37;;;6.30;99.90;;;;;;5030279;28;20441;-64
2020/12/19 10:36:31;;;;;;;1.70;0.20;;;6.30;99.90;;;;;;5039376;28;20438;-64
2020/12/19 10:38:58;;;;;;;1.70;0.20;;;6.40;99.90;;;;;;5039655;28;20235;-64
2020/12/19 10:41:24;;;;;;;1.70;0.20;;;6.40;99.90;;;;;;5041560;28;20214;-64
2020/12/19 10:43:49;;;;;;;1.70;0.20;;;6.40;99.90;;;;;;5044419;28;20463;-65
2020/12/19 10:46:21;;;;;;;1.70;0.20;;;6.40;99.90;;;;;;5032214;28;20455;-64
2020/12/19 10:48:47;;;;;;;1.70;0.20;;;6.40;99.90;;;;;;5035561;28;20217;-65
2020/12/19 10:51:13;;;;;;;1.70;0.20;;;6.50;99.90;;;;;;5036531;28;20440;-64
2020/12/19 10:53:40;;;;;;;1.70;0.20;;;6.50;99.90;;;;;;5042535;28;20211;-65
2020/12/19 10:56:06;;;;;;;1.70;0.20;;;6.60;99.90;;;;;;5030068;28;20464;-65
2020/12/19 10:58:32;;;;;;;1.70;0.20;;;6.60;99.90;;;;;;5033346;28;20444;-65
2020/12/19 11:00:58;;;;;;;1.70;0.20;;;6.70;99.90;;;;;;5042509;28;20526;-63
2020/12/19 11:03:24;;;;;;;1.70;0.20;;;6.80;99.90;;;;;;5041535;28;20185;-64
2020/12/19 11:05:50;;;;;;;1.70;0.20;;;6.90;99.90;;;;;;5048931;28;20451;-64
2020/12/19 11:08:15;;;;;;;1.70;0.20;;;7.00;99.90;;;;;;5019508;28;20193;-63
2020/12/19 11:10:44;;;;;;;1.70;0.20;;;7.10;99.90;;;;;;5039071;28;20182;-63
2020/12/19 11:13:09;;;;;;;1.70;0.20;;;7.20;99.90;;;;;;5043773;28;20492;-63
2020/12/19 11:15:39;;;;;;;1.70;0.20;;;7.20;99.90;;;;;;5045383;28;20511;-64
2020/12/19 11:18:05;;;;;;;1.70;0.20;;;7.30;99.90;;;;;;5022463;28;20185;-64
2020/12/19 11:20:30;;;;;;;1.70;0.20;;;7.30;99.90;;;;;;5016628;28;20812;-64
2020/12/19 11:22:56;;;;;;;1.70;0.20;;;7.30;99.90;;;;;;5031712;28;20226;-64
2020/12/19 11:25:21;;;;;;;1.70;0.20;;;7.30;99.90;;;;;;5027152;28;20226;-64
2020/12/19 11:27:47;;;;;;;1.70;0.20;;;7.20;99.90;;;;;;5033445;28;20236;-65
2020/12/19 11:30:12;;;;;;;1.70;0.20;;;7.30;99.90;;;;;;5031088;28;20221;-63
2020/12/19 11:32:40;;;;;;;1.70;0.20;;;7.30;99.90;;;;;;5040541;28;20247;-64
2020/12/19 11:35:07;;;;;;;1.70;0.20;;;7.40;99.90;;;;;;5016310;28;20232;-64
2020/12/19 11:37:32;;;;;;;1.70;0.20;;;7.60;99.90;;;;;;5035757;28;20460;-63
2020/12/19 11:39:58;;;;;;;1.70;0.20;;;7.70;99.90;;;;;;5037667;28;20448;-61
2020/12/19 11:42:23;;;;;;;1.70;0.20;;;7.70;99.90;;;;;;5013106;28;20259;-64
2020/12/19 11:44:49;;;;;;;1.70;0.20;;;7.70;99.90;;;;;;5033348;28;20264;-63
2020/12/19 11:47:14;;;;;;;1.70;0.20;;;7.80;99.90;;;;;;5035778;28;20189;-63
2020/12/19 11:49:40;;;;;;;1.70;0.20;;;7.80;99.90;;;;;;5030626;28;20185;-64
2020/12/19 11:52:09;;;;;;;1.70;0.20;;;7.90;99.90;;;;;;5033228;28;20186;-64
2020/12/19 11:54:39;;;;;;;1.70;0.20;;;7.90;99.90;;;;;;5033798;28;20206;-64
2020/12/19 11:57:05;;;;;;;1.70;0.20;;;7.90;99.90;;;;;;5030712;28;21344;-64
2020/12/19 11:59:31;;;;;;;2.37;1.30;;;7.90;99.90;;;;;;5028439;28;20527;-64
2020/12/19 12:02:01;;;;;;;1.70;0.20;;;7.90;99.90;;;;;;5041483;28;20471;-63
2020/12/19 12:04:27;;;;;;;1.70;0.20;;;7.90;99.90;;;;;;5029071;28;20458;-63
2020/12/19 12:06:52;;;;;;;1.70;0.20;;;7.80;99.90;;;;;;5038812;28;20449;-63
2020/12/19 12:09:18;;;;;;;1.70;0.20;;;7.80;99.90;;;;;;5031081;28;20684;-63
2020/12/19 12:11:44;;;;;;;1.80;0.30;;;7.70;99.90;;;;;;5033951;28;20653;-63
2020/12/19 12:14:09;;;;;;;1.80;0.20;;;7.70;99.90;;;;;;5035182;28;20197;-62
2020/12/19 12:16:34;;;;;;;1.80;0.53;;;7.70;99.90;;;;;;5037103;28;20194;-62
2020/12/19 12:19:00;;;;;;;1.70;0.20;;;7.70;99.90;;;;;;5036219;28;20589;-63
2020/12/19 12:21:34;;;;;;;1.80;0.40;;;7.70;99.90;;;;;;5037475;28;20198;-66
2020/12/19 12:24:00;;;;;;;1.70;0.20;;;7.70;99.90;;;;;;5032217;28;20200;-64
2020/12/19 12:26:26;;;;;;;1.70;0.20;;;7.60;99.90;;;;;;5032810;28;20451;-63
2020/12/19 12:28:53;;;;;;;1.77;0.20;;;7.60;99.90;;;;;;5029828;28;20712;-63
2020/12/19 12:31:29;;;;;;;1.77;0.20;;;7.70;99.90;;;;;;5038645;28;20435;-63
2020/12/19 12:33:56;;;;;;;1.73;0.20;;;7.80;99.90;;;;;;5049611;28;20479;-65
2020/12/19 12:36:23;;;;;;;2.00;1.00;;;7.80;99.90;;;;;;5047444;28;20444;-63
2020/12/19 12:38:49;;;;;;;2.73;1.70;;;7.80;99.90;;;;;;5030975;28;20453;-65
2020/12/19 12:41:14;;;;;;;1.80;0.20;;;7.90;99.90;;;;;;5044550;28;20899;-65
2020/12/19 12:43:40;;;;;;;1.70;0.20;;;8.00;99.90;;;;;;5034037;28;20190;-64
2020/12/19 12:46:10;;;;;;;1.80;0.50;;;8.10;99.90;;;;;;5032658;28;20273;-64
2020/12/19 12:48:36;;;;;;;1.70;0.20;;;8.10;99.90;;;;;;5034814;28;20277;-64
2020/12/19 12:51:02;;;;;;;1.70;0.20;;;8.30;99.90;;;;;;5031342;28;20502;-64
2020/12/19 12:53:27;;;;;;;1.70;0.20;;;8.30;99.90;;;;;;5028940;28;20201;-63
2020/12/19 12:55:52;;;;;;;1.70;0.20;;;8.30;99.90;;;;;;5036581;28;20677;-63
2020/12/19 12:58:18;;;;;;;1.70;0.20;;;8.30;99.90;;;;;;5039083;28;20239;-63
2020/12/19 13:00:45;;;;;;;1.90;0.87;;;8.40;99.90;;;;;;5032175;28;20223;-62